createdAt,value
2023-05-05T00:01:14.975Z,14.94
2023-05-05T00:02:18.438Z,14.88
2023-05-05T00:03:54.684Z,14.88
2023-05-05T00:04:58.884Z,14.88
2023-05-05T00:06:02.074Z,14.88
2023-05-05T00:07:36.894Z,14.88
2023-05-05T00:08:39.986Z,14.88
2023-05-05T00:09:43.076Z,14.88
2023-05-05T00:11:18.955Z,14.88
2023-05-05T00:12:22.206Z,14.88
2023-05-05T00:13:25.591Z,14.88
2023-05-05T00:15:01.114Z,14.88
2023-05-05T00:16:04.307Z,14.88
2023-05-05T00:17:07.656Z,14.88
2023-05-05T00:18:43.713Z,14.88
2023-05-05T00:19:46.969Z,14.88
2023-05-05T00:20:50.497Z,14.88
2023-05-05T00:22:25.960Z,14.88
2023-05-05T00:23:29.105Z,14.88
2023-05-05T00:24:32.210Z,14.88
2023-05-05T00:26:07.689Z,14.88
2023-05-05T00:27:11.122Z,14.88
2023-05-05T00:28:16.057Z,14.88
2023-05-05T00:29:51.172Z,14.88
2023-05-05T00:30:55.046Z,14.88
2023-05-05T00:31:58.565Z,14.88
2023-05-05T00:33:33.929Z,14.88
2023-05-05T00:34:37.316Z,14.88
2023-05-05T00:35:40.488Z,14.88
2023-05-05T00:37:15.801Z,14.88
2023-05-05T00:38:19.225Z,14.81
2023-05-05T00:39:22.722Z,14.88
2023-05-05T00:40:57.660Z,14.81
2023-05-05T00:42:00.932Z,14.88
2023-05-05T00:43:03.898Z,14.81
2023-05-05T00:44:39.076Z,14.81
2023-05-05T00:45:42.314Z,14.81
2023-05-05T00:46:46.187Z,14.81
2023-05-05T00:48:21.552Z,14.81
2023-05-05T00:49:24.967Z,14.75
2023-05-05T00:50:28.480Z,14.75
2023-05-05T00:52:03.687Z,14.75
2023-05-05T00:53:06.947Z,14.75
2023-05-05T00:54:10.228Z,14.75
2023-05-05T00:55:45.617Z,14.69
2023-05-05T00:56:48.769Z,14.69
2023-05-05T00:57:52.043Z,14.69
2023-05-05T00:59:26.954Z,14.69
2023-05-05T01:01:15.726Z,14.63
2023-05-05T01:02:18.952Z,14.63
2023-05-05T01:03:54.569Z,14.56
2023-05-05T01:04:58.392Z,14.56
2023-05-05T01:06:01.836Z,14.56
2023-05-05T01:07:37.450Z,14.56
2023-05-05T01:08:40.759Z,14.56
2023-05-05T01:09:43.967Z,14.56
2023-05-05T01:11:45.438Z,14.56
2023-05-05T01:12:49.074Z,14.50
2023-05-05T01:13:53.227Z,14.50
2023-05-05T01:15:28.535Z,14.50
2023-05-05T01:16:31.853Z,14.44
2023-05-05T01:17:35.651Z,14.44
2023-05-05T01:19:11.083Z,14.44
2023-05-05T01:20:14.465Z,14.38
2023-05-05T01:21:17.371Z,14.38
2023-05-05T01:22:52.532Z,14.31
2023-05-05T01:23:55.845Z,14.25
2023-05-05T01:24:59.135Z,14.25
2023-05-05T01:26:34.449Z,14.25
2023-05-05T01:27:37.637Z,14.13
2023-05-05T01:28:40.915Z,14.13
2023-05-05T01:30:15.973Z,14.06
2023-05-05T01:31:19.120Z,14.06
2023-05-05T01:32:22.642Z,14.06
2023-05-05T01:33:58.094Z,14.06
2023-05-05T01:35:01.323Z,14.06
2023-05-05T01:36:04.828Z,14.06
2023-05-05T01:37:40.331Z,14.06
2023-05-05T01:38:43.727Z,14.13
2023-05-05T01:39:46.914Z,14.06
2023-05-05T01:41:22.467Z,14.06
2023-05-05T01:42:25.432Z,14.06
2023-05-05T01:43:28.652Z,14.06
2023-05-05T01:45:04.228Z,14.06
2023-05-05T01:46:07.725Z,14.00
2023-05-05T01:47:11.761Z,14.00
2023-05-05T01:48:47.143Z,13.94
2023-05-05T01:49:50.178Z,13.94
2023-05-05T01:50:53.918Z,13.94
2023-05-05T01:52:28.990Z,13.88
2023-05-05T01:53:32.105Z,13.94
2023-05-05T01:54:35.339Z,13.94
2023-05-05T01:56:10.387Z,13.94
2023-05-05T01:57:13.701Z,13.88
2023-05-05T01:58:16.886Z,13.94
2023-05-05T01:59:51.864Z,13.94
2023-05-05T02:00:12.385Z,13.88
2023-05-05T02:01:15.518Z,13.94
2023-05-05T02:02:19.296Z,13.88
2023-05-05T02:03:55.188Z,13.88
2023-05-05T02:04:58.409Z,13.88
2023-05-05T02:06:01.712Z,13.88
2023-05-05T02:07:37.106Z,13.81
2023-05-05T02:08:40.301Z,13.81
2023-05-05T02:09:43.519Z,13.81
2023-05-05T02:11:19.596Z,13.81
2023-05-05T02:12:23.026Z,13.75
2023-05-05T02:13:26.425Z,13.81
2023-05-05T02:15:01.757Z,13.81
2023-05-05T02:16:05.259Z,13.81
2023-05-05T02:17:09.204Z,13.81
2023-05-05T02:18:44.648Z,13.81
2023-05-05T02:19:48.036Z,13.75
2023-05-05T02:20:51.698Z,13.75
2023-05-05T02:22:26.742Z,13.81
2023-05-05T02:23:29.867Z,13.75
2023-05-05T02:24:33.427Z,13.75
2023-05-05T02:26:08.667Z,13.75
2023-05-05T02:27:11.821Z,13.75
2023-05-05T02:28:14.899Z,13.75
2023-05-05T02:29:50.246Z,13.75
2023-05-05T02:30:54.317Z,13.75
2023-05-05T02:31:58.233Z,13.75
2023-05-05T02:33:33.694Z,13.75
2023-05-05T02:34:37.249Z,13.75
2023-05-05T02:35:40.477Z,13.75
2023-05-05T02:37:15.970Z,13.75
2023-05-05T02:38:19.207Z,13.75
2023-05-05T02:39:22.622Z,13.75
2023-05-05T02:40:57.592Z,13.75
2023-05-05T02:42:00.917Z,13.75
2023-05-05T02:43:04.121Z,13.69
2023-05-05T02:44:39.857Z,13.75
2023-05-05T02:45:43.259Z,13.75
2023-05-05T02:46:46.942Z,13.75
2023-05-05T02:48:22.479Z,13.75
2023-05-05T02:49:25.664Z,13.75
2023-05-05T02:50:29.115Z,13.75
2023-05-05T02:52:04.405Z,13.75
2023-05-05T02:53:07.835Z,13.75
2023-05-05T02:54:11.266Z,13.75
2023-05-05T02:55:46.331Z,13.75
2023-05-05T02:56:49.428Z,13.75
2023-05-05T02:57:52.520Z,13.75
2023-05-05T02:59:27.647Z,13.75
2023-05-05T03:01:14.879Z,13.75
2023-05-05T03:02:18.430Z,13.75
2023-05-05T03:03:54.441Z,13.69
2023-05-05T03:04:57.985Z,13.69
2023-05-05T03:06:01.434Z,13.69
2023-05-05T03:07:36.848Z,13.69
2023-05-05T03:08:40.132Z,13.69
2023-05-05T03:09:44.123Z,13.69
2023-05-05T03:11:20.052Z,13.63
2023-05-05T03:12:23.275Z,13.63
2023-05-05T03:13:26.673Z,13.63
2023-05-05T03:15:01.870Z,13.63
2023-05-05T03:16:04.983Z,13.63
2023-05-05T03:17:08.623Z,13.56
2023-05-05T03:18:44.208Z,13.56
2023-05-05T03:19:47.518Z,13.56
2023-05-05T03:20:52.748Z,13.56
2023-05-05T03:22:28.021Z,13.50
2023-05-05T03:23:31.434Z,13.50
2023-05-05T03:24:34.763Z,13.50
2023-05-05T03:26:10.334Z,13.44
2023-05-05T03:27:13.472Z,13.44
2023-05-05T03:28:16.746Z,13.44
2023-05-05T03:29:51.972Z,13.44
2023-05-05T03:30:55.653Z,13.44
2023-05-05T03:31:59.000Z,13.44
2023-05-05T03:33:34.713Z,13.38
2023-05-05T03:34:37.970Z,13.38
2023-05-05T03:35:41.329Z,13.38
2023-05-05T03:37:16.637Z,13.38
2023-05-05T03:38:19.995Z,13.38
2023-05-05T03:39:23.047Z,13.31
2023-05-05T03:41:15.602Z,13.31
2023-05-05T03:42:18.872Z,13.31
2023-05-05T03:43:22.154Z,13.31
2023-05-05T03:44:57.363Z,13.25
2023-05-05T03:46:00.510Z,13.25
2023-05-05T03:47:04.216Z,13.25
2023-05-05T03:48:39.647Z,13.19
2023-05-05T03:49:42.772Z,13.19
2023-05-05T03:50:46.443Z,13.19
2023-05-05T03:52:21.329Z,13.19
2023-05-05T03:53:24.534Z,13.13
2023-05-05T03:54:27.668Z,13.13
2023-05-05T03:56:02.879Z,13.13
2023-05-05T03:57:06.270Z,13.13
2023-05-05T03:58:09.622Z,13.13
2023-05-05T03:59:45.111Z,13.13
2023-05-05T04:00:12.552Z,13.13
2023-05-05T04:01:15.888Z,13.13
2023-05-05T04:02:19.216Z,13.13
2023-05-05T04:03:55.533Z,13.13
2023-05-05T04:04:59.095Z,13.13
2023-05-05T04:05:41.620Z,13.13
2023-05-05T04:06:45.466Z,13.13
2023-05-05T04:07:48.874Z,13.13
2023-05-05T04:09:24.615Z,13.13
2023-05-05T04:10:28.265Z,13.19
2023-05-05T04:11:31.838Z,13.19
2023-05-05T04:13:07.566Z,13.19
2023-05-05T04:14:11.294Z,13.19
2023-05-05T04:15:14.883Z,13.19
2023-05-05T04:16:50.781Z,13.19
2023-05-05T04:17:54.227Z,13.13
2023-05-05T04:18:57.869Z,13.13
2023-05-05T04:20:33.559Z,13.13
2023-05-05T04:21:37.250Z,13.13
2023-05-05T04:22:40.781Z,13.06
2023-05-05T04:24:16.983Z,13.06
2023-05-05T04:25:20.438Z,13.06
2023-05-05T04:26:23.802Z,13.06
2023-05-05T04:27:59.673Z,13.06
2023-05-05T04:29:04.078Z,13.00
2023-05-05T04:30:07.808Z,13.00
2023-05-05T04:31:44.074Z,13.00
2023-05-05T04:32:47.874Z,13.00
2023-05-05T04:33:51.990Z,13.00
2023-05-05T04:35:27.590Z,12.94
2023-05-05T04:36:31.043Z,12.88
2023-05-05T04:37:34.537Z,12.88
2023-05-05T04:39:10.339Z,12.81
2023-05-05T04:40:13.919Z,12.81
2023-05-05T04:41:17.635Z,12.81
2023-05-05T04:42:54.599Z,12.81
2023-05-05T04:43:58.246Z,12.81
2023-05-05T04:45:01.427Z,12.81
2023-05-05T04:46:37.126Z,12.81
2023-05-05T04:47:40.950Z,12.81
2023-05-05T04:48:45.263Z,12.81
2023-05-05T04:50:20.805Z,12.81
2023-05-05T04:51:24.543Z,12.81
2023-05-05T04:52:27.966Z,12.81
2023-05-05T04:55:23.675Z,12.81
2023-05-05T04:56:26.947Z,12.81
2023-05-05T04:58:02.728Z,12.81
2023-05-05T04:59:06.346Z,12.88
2023-05-05T05:00:12.548Z,12.88
2023-05-05T05:01:16.312Z,12.88
2023-05-05T05:02:22.398Z,12.88
2023-05-05T05:03:59.164Z,12.88
2023-05-05T05:05:02.885Z,12.88
2023-05-05T05:06:06.567Z,12.88
2023-05-05T05:07:42.160Z,12.88
2023-05-05T05:08:45.691Z,12.88
2023-05-05T05:09:49.140Z,12.88
2023-05-05T05:11:25.119Z,12.81
2023-05-05T05:12:28.788Z,12.88
2023-05-05T05:13:32.392Z,12.88
2023-05-05T05:15:08.148Z,12.88
2023-05-05T05:16:11.593Z,12.88
2023-05-05T05:17:15.125Z,12.88
2023-05-05T05:18:51.043Z,12.88
2023-05-05T05:19:54.504Z,12.88
2023-05-05T05:20:58.593Z,12.88
2023-05-05T05:22:34.244Z,12.94
2023-05-05T05:23:38.016Z,12.94
2023-05-05T05:24:41.654Z,12.94
2023-05-05T05:26:17.351Z,13.00
2023-05-05T05:27:20.961Z,13.00
2023-05-05T05:28:40.877Z,13.06
2023-05-05T05:30:16.716Z,13.06
2023-05-05T05:31:20.447Z,13.13
2023-05-05T05:32:24.321Z,13.13
2023-05-05T05:34:00.230Z,13.19
2023-05-05T05:35:05.378Z,13.25
2023-05-05T05:36:08.831Z,13.25
2023-05-05T05:37:44.398Z,13.31
2023-05-05T05:38:48.072Z,13.31
2023-05-05T05:39:51.600Z,13.38
2023-05-05T05:41:27.592Z,13.44
2023-05-05T05:42:31.134Z,13.50
2023-05-05T05:43:34.737Z,13.50
2023-05-05T05:45:10.718Z,13.63
2023-05-05T05:46:14.389Z,13.69
2023-05-05T05:47:18.457Z,13.75
2023-05-05T05:48:54.474Z,13.88
2023-05-05T05:49:57.879Z,13.94
2023-05-05T05:51:01.797Z,14.00
2023-05-05T05:52:37.791Z,14.13
2023-05-05T05:53:41.338Z,14.19
2023-05-05T05:54:45.405Z,14.31
2023-05-05T05:56:20.887Z,14.38
2023-05-05T05:57:24.160Z,14.44
2023-05-05T05:58:27.662Z,14.56
2023-05-05T06:00:12.413Z,14.69
2023-05-05T06:01:16.278Z,14.69
2023-05-05T06:02:19.931Z,14.75
2023-05-05T06:03:56.420Z,14.88
2023-05-05T06:05:00.781Z,14.94
2023-05-05T06:06:03.976Z,14.94
2023-05-05T06:07:39.546Z,15.00
2023-05-05T06:08:42.971Z,15.06
2023-05-05T06:09:46.377Z,15.13
2023-05-05T06:11:44.383Z,15.19
2023-05-05T06:12:47.948Z,15.25
2023-05-05T06:13:52.292Z,15.31
2023-05-05T06:15:27.765Z,15.38
2023-05-05T06:16:31.683Z,15.44
2023-05-05T06:17:35.169Z,15.44
2023-05-05T06:19:10.860Z,15.50
2023-05-05T06:20:14.406Z,15.56
2023-05-05T06:21:18.070Z,15.56
2023-05-05T06:22:53.776Z,15.63
2023-05-05T06:23:57.395Z,15.69
2023-05-05T06:25:01.038Z,15.69
2023-05-05T06:26:36.855Z,15.81
2023-05-05T06:27:40.456Z,15.81
2023-05-05T06:28:44.326Z,15.88
2023-05-05T06:30:19.957Z,16.00
2023-05-05T06:31:23.269Z,16.06
2023-05-05T06:32:27.042Z,16.13
2023-05-05T06:34:02.978Z,16.19
2023-05-05T06:35:06.417Z,16.25
2023-05-05T06:36:09.825Z,16.31
2023-05-05T06:37:45.818Z,16.38
2023-05-05T06:38:49.295Z,16.44
2023-05-05T06:39:55.207Z,16.56
2023-05-05T06:41:31.440Z,16.63
2023-05-05T06:42:34.850Z,16.69
2023-05-05T06:43:38.210Z,16.75
2023-05-05T06:45:13.876Z,16.81
2023-05-05T06:46:18.997Z,16.81
2023-05-05T06:47:23.078Z,16.94
2023-05-05T06:48:59.239Z,17.00
2023-05-05T06:50:02.678Z,17.13
2023-05-05T06:51:06.247Z,17.19
2023-05-05T06:52:41.717Z,17.31
2023-05-05T06:53:45.008Z,17.31
2023-05-05T06:54:48.461Z,17.38
2023-05-05T06:56:23.931Z,17.50
2023-05-05T06:57:27.379Z,17.50
2023-05-05T06:58:30.890Z,17.50
2023-05-05T07:00:11.922Z,17.63
2023-05-05T07:01:15.684Z,17.69
2023-05-05T07:02:19.142Z,17.88
2023-05-05T07:03:57.216Z,17.94
2023-05-05T07:05:00.942Z,18.13
2023-05-05T07:06:04.554Z,18.19
2023-05-05T07:07:40.143Z,18.31
2023-05-05T07:08:43.537Z,18.38
2023-05-05T07:09:46.785Z,18.38
2023-05-05T07:11:23.117Z,18.50
2023-05-05T07:12:26.746Z,18.50
2023-05-05T07:13:30.895Z,18.56
2023-05-05T07:15:19.212Z,18.63
2023-05-05T07:16:27.799Z,18.63
2023-05-05T07:17:31.881Z,18.69
2023-05-05T07:19:08.196Z,18.75
2023-05-05T07:20:11.769Z,18.75
2023-05-05T07:21:15.163Z,18.88
2023-05-05T07:22:50.659Z,18.88
2023-05-05T07:23:53.992Z,18.94
2023-05-05T07:24:57.268Z,19.00
2023-05-05T07:26:32.823Z,19.00
2023-05-05T07:27:36.240Z,19.00
2023-05-05T07:28:39.662Z,19.00
2023-05-05T07:30:18.155Z,19.06
2023-05-05T07:31:22.895Z,19.13
2023-05-05T07:32:26.833Z,19.13
2023-05-05T07:34:02.843Z,19.25
2023-05-05T07:35:06.289Z,19.25
2023-05-05T07:36:09.753Z,19.25
2023-05-05T07:37:45.118Z,19.38
2023-05-05T07:38:50.874Z,19.50
2023-05-05T07:39:54.248Z,19.56
2023-05-05T07:41:29.952Z,19.56
2023-05-05T07:42:33.438Z,19.50
2023-05-05T07:43:38.821Z,19.44
2023-05-05T07:45:15.174Z,19.44
2023-05-05T07:46:18.818Z,19.50
2023-05-05T07:47:23.068Z,19.63
2023-05-05T07:48:59.367Z,19.69
2023-05-05T07:50:02.998Z,19.81
2023-05-05T07:51:07.483Z,19.88
2023-05-05T07:52:51.860Z,19.94
2023-05-05T07:54:12.630Z,20.00
2023-05-05T07:55:16.192Z,19.94
2023-05-05T07:56:51.412Z,19.94
2023-05-05T07:57:54.578Z,19.94
2023-05-05T07:58:57.798Z,19.94
2023-05-05T08:00:12.573Z,19.94
2023-05-05T08:01:15.996Z,19.94
2023-05-05T08:02:19.472Z,20.00
2023-05-05T08:03:56.161Z,20.06
2023-05-05T08:05:00.632Z,20.13
2023-05-05T08:06:05.107Z,20.19
2023-05-05T08:07:41.308Z,20.38
2023-05-05T08:08:45.193Z,20.44
2023-05-05T08:09:48.750Z,20.56
2023-05-05T08:11:24.513Z,20.63
2023-05-05T08:12:27.984Z,20.75
2023-05-05T08:13:31.888Z,20.81
2023-05-05T08:15:07.926Z,20.88
2023-05-05T08:16:11.643Z,20.88
2023-05-05T08:17:16.316Z,20.88
2023-05-05T08:18:52.090Z,20.88
2023-05-05T08:20:15.823Z,20.94
2023-05-05T08:21:19.350Z,20.94
2023-05-05T08:22:55.079Z,20.94
2023-05-05T08:23:58.716Z,20.94
2023-05-05T08:25:02.854Z,20.88
2023-05-05T08:26:39.081Z,20.94
2023-05-05T08:27:43.033Z,20.94
2023-05-05T08:28:46.739Z,21.00
2023-05-05T08:30:22.046Z,21.06
2023-05-05T08:31:25.430Z,21.06
2023-05-05T08:32:29.902Z,21.13
2023-05-05T08:34:06.112Z,21.13
2023-05-05T08:35:09.837Z,21.19
2023-05-05T08:36:13.751Z,21.19
2023-05-05T08:37:49.189Z,21.31
2023-05-05T08:38:56.001Z,21.19
2023-05-05T08:39:59.774Z,21.13
2023-05-05T08:41:35.780Z,21.00
2023-05-05T08:42:39.700Z,21.06
2023-05-05T08:43:43.171Z,21.13
2023-05-05T08:45:18.909Z,21.19
2023-05-05T08:46:22.400Z,21.31
2023-05-05T08:47:26.341Z,21.38
2023-05-05T08:49:02.318Z,21.56
2023-05-05T08:50:05.600Z,21.63
2023-05-05T08:51:09.180Z,21.69
2023-05-05T08:52:44.902Z,21.75
2023-05-05T08:53:49.099Z,21.69
2023-05-05T08:54:52.692Z,21.63
2023-05-05T08:56:28.730Z,21.38
2023-05-05T08:57:32.356Z,21.44
2023-05-05T08:58:35.986Z,21.38
2023-05-05T09:00:12.175Z,21.38
2023-05-05T09:01:15.728Z,21.38
2023-05-05T09:02:19.586Z,21.50
2023-05-05T09:03:56.301Z,21.50
2023-05-05T09:04:59.851Z,21.63
2023-05-05T09:06:03.443Z,21.69
2023-05-05T09:07:39.353Z,21.75
2023-05-05T09:08:42.463Z,21.94
2023-05-05T09:09:46.266Z,22.00
2023-05-05T09:11:21.752Z,22.06
2023-05-05T09:12:25.276Z,22.13
2023-05-05T09:13:29.025Z,22.06
2023-05-05T09:15:04.631Z,21.81
2023-05-05T09:16:08.365Z,21.63
2023-05-05T09:17:12.139Z,21.38
2023-05-05T09:18:47.814Z,21.19
2023-05-05T09:19:51.199Z,21.19
2023-05-05T09:20:54.620Z,21.19
2023-05-05T09:22:30.072Z,21.38
2023-05-05T09:23:33.690Z,21.44
2023-05-05T09:24:44.472Z,21.44
2023-05-05T09:26:20.396Z,21.50
2023-05-05T09:27:23.712Z,21.50
2023-05-05T09:28:27.300Z,21.56
2023-05-05T09:30:02.780Z,21.63
2023-05-05T09:31:06.345Z,21.50
2023-05-05T09:32:10.166Z,21.44
2023-05-05T09:33:49.165Z,21.31
2023-05-05T09:34:52.823Z,21.31
2023-05-05T09:35:56.692Z,21.25
2023-05-05T09:37:32.164Z,21.25
2023-05-05T09:38:35.771Z,21.25
2023-05-05T09:39:39.597Z,21.19
2023-05-05T09:41:15.023Z,21.13
2023-05-05T09:42:18.443Z,21.13
2023-05-05T09:43:21.749Z,21.13
2023-05-05T09:44:59.882Z,21.00
2023-05-05T09:46:03.702Z,21.00
2023-05-05T09:47:18.456Z,21.00
2023-05-05T09:49:09.902Z,21.00
2023-05-05T09:50:13.516Z,20.88
2023-05-05T09:51:17.681Z,20.88
2023-05-05T09:52:53.353Z,20.81
2023-05-05T09:53:56.729Z,20.81
2023-05-05T09:54:59.915Z,20.75
2023-05-05T09:56:35.191Z,20.75
2023-05-05T09:57:38.783Z,20.69
2023-05-05T09:58:42.531Z,20.69
2023-05-05T10:00:12.184Z,20.56
2023-05-05T10:01:15.635Z,20.50
2023-05-05T10:02:19.337Z,20.31
2023-05-05T10:03:55.389Z,20.19
2023-05-05T10:05:01.552Z,20.13
2023-05-05T10:06:05.884Z,20.13
2023-05-05T10:07:41.596Z,20.13
2023-05-05T10:08:45.104Z,20.06
2023-05-05T10:09:48.454Z,20.13
2023-05-05T10:11:24.572Z,20.13
2023-05-05T10:12:28.067Z,20.13
2023-05-05T10:13:32.161Z,20.19
2023-05-05T10:15:07.768Z,20.25
2023-05-05T10:16:11.261Z,20.38
2023-05-05T10:17:15.768Z,20.44
2023-05-05T10:19:13.046Z,20.50
2023-05-05T10:20:16.757Z,20.50
2023-05-05T10:21:20.363Z,20.50
2023-05-05T10:22:57.214Z,20.56
2023-05-05T10:24:01.122Z,20.56
2023-05-05T10:25:04.572Z,20.63
2023-05-05T10:26:40.661Z,20.69
2023-05-05T10:27:46.945Z,20.81
2023-05-05T10:28:50.279Z,20.81
2023-05-05T10:30:25.578Z,20.88
2023-05-05T10:31:29.017Z,20.94
2023-05-05T10:34:55.011Z,20.94
2023-05-05T10:35:58.689Z,20.88
2023-05-05T10:37:02.429Z,20.81
2023-05-05T10:38:38.115Z,20.81
2023-05-05T10:39:41.738Z,20.81
2023-05-05T10:40:45.877Z,20.88
2023-05-05T10:42:21.641Z,20.88
2023-05-05T10:43:25.210Z,20.88
2023-05-05T10:44:29.026Z,20.88
2023-05-05T10:46:04.710Z,20.88
2023-05-05T10:47:08.710Z,20.81
2023-05-05T10:48:12.667Z,20.81
2023-05-05T10:49:49.135Z,20.75
2023-05-05T10:50:53.136Z,20.75
2023-05-05T10:52:16.406Z,20.75
2023-05-05T10:53:52.206Z,20.81
2023-05-05T10:54:56.428Z,20.81
2023-05-05T10:56:00.089Z,20.81
2023-05-05T10:57:35.920Z,20.81
2023-05-05T10:58:51.083Z,20.81
2023-05-05T10:59:59.688Z,20.81
2023-05-05T11:00:14.078Z,20.81
2023-05-05T11:01:18.743Z,20.81
2023-05-05T11:02:23.341Z,20.75
2023-05-05T11:03:59.849Z,20.69
2023-05-05T11:05:03.571Z,20.69
2023-05-05T11:06:07.280Z,20.69
2023-05-05T11:07:45.436Z,20.63
2023-05-05T11:08:48.960Z,20.56
2023-05-05T11:09:52.720Z,20.56
2023-05-05T11:11:29.133Z,20.56
2023-05-05T11:12:33.038Z,20.44
2023-05-05T11:13:37.522Z,20.38
2023-05-05T11:15:13.542Z,20.31
2023-05-05T11:16:17.553Z,20.31
2023-05-05T11:17:21.739Z,20.31
2023-05-05T11:18:57.973Z,20.31
2023-05-05T11:20:01.632Z,20.31
2023-05-05T11:21:05.564Z,20.25
2023-05-05T11:22:41.720Z,20.25
2023-05-05T11:23:46.325Z,20.13
2023-05-05T11:24:49.941Z,20.13
2023-05-05T11:26:25.735Z,20.06
2023-05-05T11:27:29.162Z,20.00
2023-05-05T11:28:32.698Z,20.00
2023-05-05T11:30:08.916Z,19.88
2023-05-05T11:31:12.898Z,19.75
2023-05-05T11:32:16.964Z,19.69
2023-05-05T11:33:53.297Z,19.63
2023-05-05T11:34:56.921Z,19.56
2023-05-05T11:36:00.972Z,19.56
2023-05-05T11:37:37.509Z,19.56
2023-05-05T11:38:40.905Z,19.50
2023-05-05T11:39:44.465Z,19.56
2023-05-05T11:41:20.724Z,19.56
2023-05-05T11:42:24.277Z,19.50
2023-05-05T11:43:27.925Z,19.31
2023-05-05T11:45:03.707Z,19.19
2023-05-05T11:46:07.245Z,19.13
2023-05-05T11:47:11.385Z,18.75
2023-05-05T11:48:47.633Z,18.69
2023-05-05T11:49:51.495Z,18.50
2023-05-05T11:50:55.743Z,18.19
2023-05-05T11:52:31.733Z,17.69
2023-05-05T11:53:35.211Z,17.50
2023-05-05T11:54:40.107Z,17.19
2023-05-05T11:56:15.912Z,16.63
2023-05-05T11:57:19.483Z,16.38
2023-05-05T11:58:23.111Z,16.25
2023-05-05T11:59:58.857Z,16.00
2023-05-05T12:00:12.620Z,16.00
2023-05-05T12:01:16.302Z,15.94
2023-05-05T12:02:19.826Z,15.88
2023-05-05T12:03:56.548Z,15.69
2023-05-05T12:05:01.236Z,15.50
2023-05-05T12:06:05.164Z,15.44
2023-05-05T12:07:41.178Z,15.38
2023-05-05T12:08:44.805Z,15.25
2023-05-05T12:09:48.492Z,15.13
2023-05-05T12:11:24.640Z,15.13
2023-05-05T12:12:28.434Z,15.13
2023-05-05T12:13:36.432Z,15.13
2023-05-05T12:15:12.101Z,15.13
2023-05-05T12:16:15.727Z,15.13
2023-05-05T12:17:19.509Z,15.06
2023-05-05T12:18:55.822Z,15.06
2023-05-05T12:19:59.384Z,15.13
2023-05-05T12:21:04.022Z,15.13
2023-05-05T12:22:40.045Z,15.19
2023-05-05T12:23:43.657Z,15.19
2023-05-05T12:24:47.406Z,15.19
2023-05-05T12:26:25.135Z,15.19
2023-05-05T12:27:28.717Z,15.19
2023-05-05T12:28:32.393Z,15.13
2023-05-05T12:30:08.240Z,15.13
2023-05-05T12:31:12.391Z,15.06
2023-05-05T12:32:16.299Z,15.06
2023-05-05T12:33:52.165Z,15.06
2023-05-05T12:34:55.803Z,15.00
2023-05-05T12:35:59.354Z,15.00
2023-05-05T12:37:37.606Z,14.94
2023-05-05T12:38:41.095Z,14.88
2023-05-05T12:39:44.799Z,14.88
2023-05-05T12:41:20.979Z,14.81
2023-05-05T12:42:24.546Z,14.75
2023-05-05T12:43:28.251Z,14.75
2023-05-05T12:45:04.212Z,14.56
2023-05-05T12:46:08.029Z,14.50
2023-05-05T12:47:12.469Z,14.44
2023-05-05T12:48:48.669Z,14.44
2023-05-05T12:49:52.410Z,14.44
2023-05-05T12:50:56.058Z,14.44
2023-05-05T12:52:31.981Z,14.44
2023-05-05T12:53:35.633Z,14.44
2023-05-05T12:54:39.276Z,14.44
2023-05-05T12:56:16.970Z,14.50
2023-05-05T12:57:20.580Z,14.50
2023-05-05T12:58:24.147Z,14.44
2023-05-05T12:59:59.814Z,14.25
2023-05-05T13:00:12.028Z,14.25
2023-05-05T13:01:15.862Z,14.25
2023-05-05T13:02:20.067Z,14.25
2023-05-05T13:03:56.888Z,14.25
2023-05-05T13:05:00.502Z,14.31
2023-05-05T13:06:04.551Z,14.31
2023-05-05T13:07:40.293Z,14.38
2023-05-05T13:08:44.002Z,14.38
2023-05-05T13:09:47.600Z,14.38
2023-05-05T13:11:23.179Z,14.44
2023-05-05T13:12:26.845Z,14.44
2023-05-05T13:13:30.981Z,14.50
2023-05-05T13:15:06.841Z,14.50
2023-05-05T13:16:10.774Z,14.50
2023-05-05T13:17:14.793Z,14.44
2023-05-05T13:18:53.547Z,14.50
2023-05-05T13:19:57.230Z,14.50
2023-05-05T13:21:00.709Z,14.50
2023-05-05T13:22:36.595Z,14.50
2023-05-05T13:23:40.120Z,14.56
2023-05-05T13:25:27.073Z,14.56
2023-05-05T13:27:02.887Z,14.56
2023-05-05T13:28:06.547Z,14.63
2023-05-05T13:29:09.918Z,14.63
2023-05-05T13:30:50.399Z,14.63
2023-05-05T13:31:54.241Z,14.63
2023-05-05T13:32:58.051Z,14.63
2023-05-05T13:34:34.133Z,14.56
2023-05-05T13:35:37.614Z,14.50
2023-05-05T13:36:41.375Z,14.50
2023-05-05T13:38:17.321Z,14.50
2023-05-05T13:39:20.859Z,14.56
2023-05-05T13:40:25.935Z,14.56
2023-05-05T13:42:01.863Z,14.56
2023-05-05T13:43:05.256Z,14.56
2023-05-05T13:44:08.682Z,14.56
2023-05-05T13:45:44.773Z,14.63
2023-05-05T13:47:06.817Z,14.63
2023-05-05T13:48:11.198Z,14.63
2023-05-05T13:49:46.913Z,14.63
2023-05-05T13:50:50.527Z,14.63
2023-05-05T13:51:54.332Z,14.63
2023-05-05T13:53:30.468Z,14.56
2023-05-05T13:54:34.200Z,14.63
2023-05-05T13:55:37.735Z,14.56
2023-05-05T13:57:13.224Z,14.56
2023-05-05T13:58:16.876Z,14.63
2023-05-05T13:59:23.522Z,14.63
2023-05-05T14:01:16.183Z,14.63
2023-05-05T14:02:20.225Z,14.63
2023-05-05T14:03:57.611Z,14.63
2023-05-05T14:05:04.660Z,14.56
2023-05-05T14:06:08.576Z,14.56
2023-05-05T14:07:43.771Z,14.56
2023-05-05T14:08:47.096Z,14.50
2023-05-05T14:09:50.443Z,14.50
2023-05-05T14:11:27.115Z,14.50
2023-05-05T14:12:30.292Z,14.50
2023-05-05T14:13:33.906Z,14.56
2023-05-05T14:15:09.085Z,14.56
2023-05-05T14:16:12.332Z,14.63
2023-05-05T14:17:15.859Z,14.63
2023-05-05T14:18:51.076Z,14.69
2023-05-05T14:19:54.446Z,14.69
2023-05-05T14:20:57.856Z,14.69
2023-05-05T14:22:32.984Z,14.75
2023-05-05T14:23:36.090Z,14.75
2023-05-05T14:24:39.202Z,14.75
2023-05-05T14:26:14.904Z,14.75
2023-05-05T14:27:18.205Z,14.75
2023-05-05T14:28:21.265Z,14.81
2023-05-05T14:29:56.982Z,14.81
2023-05-05T14:31:00.044Z,14.88
2023-05-05T14:32:03.374Z,14.88
2023-05-05T14:33:38.932Z,14.94
2023-05-05T14:34:42.187Z,14.94
2023-05-05T14:35:48.480Z,14.94
2023-05-05T14:37:23.232Z,14.81
2023-05-05T14:38:26.503Z,14.75
2023-05-05T14:39:30.034Z,14.75
2023-05-05T14:41:05.282Z,14.81
2023-05-05T14:42:08.439Z,14.81
2023-05-05T14:43:11.589Z,14.94
2023-05-05T14:44:47.063Z,14.94
2023-05-05T14:45:50.420Z,15.00
2023-05-05T14:46:54.233Z,15.06
2023-05-05T14:48:29.184Z,15.19
2023-05-05T14:49:32.209Z,15.25
2023-05-05T14:50:35.364Z,15.25
2023-05-05T14:52:10.460Z,15.38
2023-05-05T14:53:13.535Z,15.44
2023-05-05T14:54:27.509Z,15.44
2023-05-05T14:56:03.566Z,15.44
2023-05-05T14:57:07.007Z,15.50
2023-05-05T14:58:10.210Z,15.50
2023-05-05T14:59:45.260Z,15.44
2023-05-05T15:00:12.321Z,15.44
2023-05-05T15:01:15.160Z,15.44
2023-05-05T15:02:18.942Z,15.38
2023-05-05T15:03:55.026Z,15.38
2023-05-05T15:04:58.632Z,15.38
2023-05-05T15:06:02.337Z,15.31
2023-05-05T15:07:37.517Z,15.19
2023-05-05T15:08:40.390Z,15.19
2023-05-05T15:09:43.594Z,15.13
2023-05-05T15:11:18.778Z,15.00
2023-05-05T15:12:22.063Z,14.94
2023-05-05T15:13:25.545Z,14.88
2023-05-05T15:15:00.793Z,14.88
2023-05-05T15:16:04.254Z,14.88
2023-05-05T15:17:10.256Z,14.88
2023-05-05T15:18:45.768Z,15.00
2023-05-05T15:19:48.786Z,15.00
2023-05-05T15:20:51.690Z,15.13
2023-05-05T15:22:26.557Z,15.19
2023-05-05T15:23:30.191Z,15.25
2023-05-05T15:24:33.262Z,15.31
2023-05-05T15:26:08.254Z,15.31
2023-05-05T15:27:11.294Z,15.44
2023-05-05T15:28:14.561Z,15.50
2023-05-05T15:29:49.585Z,15.50
2023-05-05T15:30:52.729Z,15.56
2023-05-05T15:31:56.295Z,15.69
2023-05-05T15:33:31.811Z,15.81
2023-05-05T15:34:34.868Z,15.88
2023-05-05T15:35:42.170Z,16.00
2023-05-05T15:37:17.338Z,16.06
2023-05-05T15:38:20.184Z,16.13
2023-05-05T15:39:23.534Z,16.19
2023-05-05T15:40:58.830Z,16.25
2023-05-05T15:42:02.322Z,16.19
2023-05-05T15:43:05.416Z,16.19
2023-05-05T15:44:40.281Z,16.25
2023-05-05T15:45:43.853Z,16.31
2023-05-05T15:46:49.055Z,16.31
2023-05-05T15:48:26.060Z,16.31
2023-05-05T15:49:29.391Z,16.31
2023-05-05T15:50:32.751Z,16.38
2023-05-05T15:52:07.995Z,16.38
2023-05-05T15:53:11.139Z,16.44
2023-05-05T15:54:14.073Z,16.50
2023-05-05T15:55:49.194Z,16.50
2023-05-05T15:56:52.102Z,16.50
2023-05-05T15:57:55.109Z,16.50
2023-05-05T15:59:29.936Z,16.44
2023-05-05T16:01:14.827Z,16.44
2023-05-05T16:02:18.807Z,16.56